createdAt,value
2019-01-19T00:03:00.341Z,87.70
2019-01-19T00:06:28.858Z,87.70
2019-01-19T00:09:28.198Z,87.70
2019-01-19T00:12:40.475Z,87.70
2019-01-19T00:15:29.345Z,87.80
2019-01-19T00:18:22.773Z,87.80
2019-01-19T00:21:41.122Z,87.80
2019-01-19T00:25:13.592Z,87.80
2019-01-19T00:28:00.066Z,87.80
2019-01-19T00:30:45.461Z,88.60
2019-01-19T00:33:35.390Z,87.80
2019-01-19T00:36:26.299Z,87.90
2019-01-19T00:39:50.837Z,88.00
2019-01-19T00:42:30.749Z,87.90
2019-01-19T00:49:00.025Z,88.10
2019-01-19T00:52:15.242Z,88.10
2019-01-19T00:55:13.469Z,88.10
2019-01-19T00:58:10.723Z,88.20
2019-01-19T01:01:12.884Z,88.20
2019-01-19T01:04:19.636Z,88.10
2019-01-19T01:07:39.225Z,88.20
2019-01-19T01:10:56.432Z,88.10
2019-01-19T01:14:20.462Z,87.90
2019-01-19T01:17:18.338Z,87.70
2019-01-19T01:20:35.097Z,87.80
2019-01-19T01:23:21.558Z,87.70
2019-01-19T01:26:32.203Z,87.70
2019-01-19T01:29:32.421Z,87.70
2019-01-19T01:32:11.713Z,87.70
2019-01-19T01:35:06.545Z,87.80
2019-01-19T01:38:15.338Z,87.80
2019-01-19T01:41:29.352Z,87.70
2019-01-19T01:44:20.326Z,87.80
2019-01-19T01:47:40.649Z,87.90
2019-01-19T01:53:18.959Z,88.40
2019-01-19T01:55:54.730Z,87.90
2019-01-19T02:01:37.254Z,87.10
2019-01-19T02:04:54.158Z,87.80
2019-01-19T02:11:06.786Z,92.40
2019-01-19T02:14:07.164Z,87.90
2019-01-19T02:17:06.848Z,87.80
2019-01-19T02:20:11.831Z,87.80
2019-01-19T02:23:21.566Z,91.60
2019-01-19T02:33:15.494Z,89.40
2019-01-19T02:36:22.274Z,87.80
2019-01-19T02:39:33.023Z,87.90
2019-01-19T02:42:23.977Z,88.10
2019-01-19T02:45:35.252Z,88.00
2019-01-19T02:48:56.745Z,88.10
2019-01-19T02:52:15.875Z,88.20
2019-01-19T02:55:22.859Z,88.10
2019-01-19T02:58:53.529Z,88.20
2019-01-19T03:01:55.741Z,88.20
2019-01-19T03:04:54.984Z,88.30
2019-01-19T03:08:02.033Z,88.30
2019-01-19T03:11:21.031Z,88.20
2019-01-19T03:14:23.001Z,88.10
2019-01-19T03:17:22.444Z,87.90
2019-01-19T03:20:41.023Z,87.80
2019-01-19T03:23:39.556Z,87.80
2019-01-19T03:26:48.692Z,87.70
2019-01-19T03:29:58.231Z,88.30
2019-01-19T03:33:13.570Z,87.60
2019-01-19T03:36:45.499Z,87.60
2019-01-19T03:40:08.290Z,87.40
2019-01-19T03:43:42.996Z,87.50
2019-01-19T03:46:52.265Z,87.50
2019-01-19T03:49:37.401Z,87.50
2019-01-19T03:52:29.032Z,87.60
2019-01-19T03:55:28.283Z,87.70
2019-01-19T03:58:19.730Z,90.10
2019-01-19T04:03:51.699Z,91.60
2019-01-19T04:06:51.535Z,89.90
2019-01-19T04:12:54.172Z,90.50
2019-01-19T04:15:51.267Z,90.50
2019-01-19T04:19:02.161Z,89.80
2019-01-19T04:27:02.062Z,86.90
2019-01-19T04:29:41.714Z,92.60
2019-01-19T04:32:17.413Z,87.80
2019-01-19T04:34:55.734Z,87.80
2019-01-19T04:37:38.480Z,87.80
2019-01-19T04:40:54.597Z,87.80
2019-01-19T04:43:25.937Z,87.80
2019-01-19T04:46:00.564Z,87.60
2019-01-19T04:48:32.146Z,87.60
2019-01-19T04:51:03.394Z,87.50
2019-01-19T04:53:35.032Z,87.40
2019-01-19T04:56:06.592Z,87.30
2019-01-19T04:58:37.927Z,87.40
2019-01-19T05:01:09.263Z,87.50
2019-01-19T05:03:40.654Z,87.30
2019-01-19T05:06:15.670Z,87.30
2019-01-19T05:09:01.294Z,87.50
2019-01-19T05:11:45.622Z,87.70
2019-01-19T05:14:32.202Z,87.80
2019-01-19T05:17:20.561Z,87.90
2019-01-19T05:20:01.482Z,87.90
2019-01-19T05:22:32.888Z,88.00
2019-01-19T05:25:06.582Z,87.90
2019-01-19T05:27:40.432Z,87.90
2019-01-19T05:30:17.856Z,88.10
2019-01-19T05:32:49.564Z,88.10
2019-01-19T05:35:21.037Z,88.00
2019-01-19T05:37:52.470Z,87.80
2019-01-19T05:40:30.232Z,87.70
2019-01-19T05:43:02.069Z,87.50
2019-01-19T05:45:35.384Z,87.40
2019-01-19T05:48:16.390Z,87.30
2019-01-19T05:50:53.230Z,87.10
2019-01-19T05:53:27.174Z,86.90
2019-01-19T05:56:20.002Z,86.70
2019-01-19T05:58:51.419Z,86.80
2019-01-19T06:01:23.687Z,86.90
2019-01-19T06:03:55.009Z,86.80
2019-01-19T06:06:29.280Z,86.80
2019-01-19T06:09:00.618Z,86.80
2019-01-19T06:11:34.796Z,86.80
2019-01-19T06:14:06.101Z,86.70
2019-01-19T06:16:37.439Z,86.80
2019-01-19T06:19:08.817Z,86.70
2019-01-19T06:21:54.769Z,86.80
2019-01-19T06:24:25.969Z,86.70
2019-01-19T06:26:59.030Z,86.60
2019-01-19T06:29:30.316Z,86.50
2019-01-19T06:32:01.846Z,86.50
2019-01-19T06:34:33.126Z,86.30
2019-01-19T06:37:04.511Z,86.20
2019-01-19T06:39:35.941Z,86.10
2019-01-19T06:42:07.404Z,86.00
2019-01-19T06:44:40.606Z,85.90
2019-01-19T06:47:13.594Z,85.90
2019-01-19T06:49:44.801Z,86.00
2019-01-19T06:52:16.163Z,86.00
2019-01-19T06:54:47.443Z,86.10
2019-01-19T06:57:18.860Z,86.30
2019-01-19T06:59:50.343Z,86.40
2019-01-19T07:02:21.806Z,86.60
2019-01-19T07:04:53.011Z,86.80
2019-01-19T07:07:24.245Z,87.20
2019-01-19T07:09:55.606Z,87.20
2019-01-19T07:12:26.869Z,87.30
2019-01-19T07:14:58.080Z,87.40
2019-01-19T07:17:29.535Z,87.50
2019-01-19T07:20:00.765Z,87.50
2019-01-19T07:22:36.439Z,87.40
2019-01-19T07:25:07.777Z,87.50
2019-01-19T07:27:39.361Z,87.50
2019-01-19T07:30:15.104Z,87.60
2019-01-19T07:32:46.516Z,87.80
2019-01-19T07:35:22.352Z,87.80
2019-01-19T07:37:55.834Z,88.10
2019-01-19T07:40:30.413Z,88.10
2019-01-19T07:43:06.706Z,88.20
2019-01-19T07:45:38.282Z,88.10
2019-01-19T07:48:10.507Z,88.00
2019-01-19T07:50:42.714Z,87.90
2019-01-19T07:53:14.128Z,88.10
2019-01-19T07:55:45.633Z,88.10
2019-01-19T07:58:16.948Z,88.10
2019-01-19T08:00:48.342Z,88.10
2019-01-19T08:03:20.986Z,88.20
2019-01-19T08:05:52.374Z,88.30
2019-01-19T08:08:23.655Z,88.30
2019-01-19T08:10:55.678Z,88.40
2019-01-19T08:13:29.419Z,88.40
2019-01-19T08:16:01.676Z,88.50
2019-01-19T08:18:32.961Z,88.40
2019-01-19T08:21:04.333Z,88.50
2019-01-19T08:23:38.458Z,88.60
2019-01-19T08:26:09.725Z,88.60
2019-01-19T08:28:41.242Z,88.70
2019-01-19T08:31:13.478Z,88.80
2019-01-19T08:33:44.788Z,88.70
2019-01-19T08:36:16.267Z,88.70
2019-01-19T08:38:48.020Z,88.70
2019-01-19T08:41:19.431Z,88.60
2019-01-19T08:43:59.329Z,88.70
2019-01-19T08:46:32.326Z,88.60
2019-01-19T08:49:03.615Z,88.60
2019-01-19T08:51:36.029Z,88.70
2019-01-19T08:54:07.353Z,88.60
2019-01-19T08:56:40.690Z,88.50
2019-01-19T08:59:11.982Z,88.40
2019-01-19T09:01:43.384Z,88.00
2019-01-19T09:04:14.725Z,87.90
2019-01-19T09:06:47.601Z,87.80
2019-01-19T09:09:19.061Z,87.60
2019-01-19T09:11:51.098Z,87.40
2019-01-19T09:14:23.336Z,87.10
2019-01-19T09:16:54.907Z,86.80
2019-01-19T09:19:26.297Z,86.50
2019-01-19T09:22:05.161Z,86.20
2019-01-19T09:24:36.549Z,86.00
2019-01-19T09:27:07.881Z,85.80
2019-01-19T09:29:39.125Z,85.60
2019-01-19T09:32:10.664Z,85.40
2019-01-19T09:34:42.031Z,85.30
2019-01-19T09:37:13.538Z,85.10
2019-01-19T09:39:44.815Z,85.00
2019-01-19T09:42:17.589Z,93.70
2019-01-19T09:44:49.296Z,84.70
2019-01-19T09:47:20.684Z,84.40
2019-01-19T09:49:51.984Z,84.30
2019-01-19T09:52:25.095Z,84.40
2019-01-19T09:54:56.480Z,84.40
2019-01-19T09:57:27.724Z,84.20
2019-01-19T09:59:59.333Z,84.50
2019-01-19T10:02:32.108Z,92.40
2019-01-19T10:05:03.656Z,84.60
2019-01-19T10:07:36.656Z,84.40
2019-01-19T10:10:09.488Z,84.30
2019-01-19T10:12:41.018Z,83.80
2019-01-19T10:15:16.307Z,83.60
2019-01-19T10:17:47.705Z,83.40
2019-01-19T10:20:21.217Z,83.70
2019-01-19T10:22:52.994Z,83.30
2019-01-19T10:25:24.430Z,82.90
2019-01-19T10:27:55.648Z,82.60
2019-01-19T10:32:57.741Z,93.80
2019-01-19T10:35:29.120Z,93.60
2019-01-19T10:38:01.033Z,94.10
2019-01-19T10:45:34.022Z,93.90
2019-01-19T10:48:06.092Z,81.80
2019-01-19T10:50:37.654Z,92.30
2019-01-19T10:55:39.806Z,89.70
2019-01-19T11:00:42.265Z,85.50
2019-01-19T11:05:44.246Z,90.00
2019-01-19T11:10:46.229Z,90.70
2019-01-19T11:20:49.806Z,80.70
2019-01-19T11:23:21.396Z,91.10
2019-01-19T11:30:54.030Z,86.50
2019-01-19T11:35:56.158Z,87.00
2019-01-19T11:40:58.242Z,86.30
2019-01-19T11:43:29.590Z,84.90
2019-01-19T11:46:00.992Z,86.50
2019-01-19T11:48:33.805Z,90.00
2019-01-19T11:51:05.234Z,86.90
2019-01-19T11:53:37.438Z,85.90
2019-01-19T11:56:12.319Z,86.80
2019-01-19T11:58:42.040Z,86.40
2019-01-19T12:23:10.692Z,81.20
2019-01-19T12:25:42.231Z,81.20
2019-01-19T12:28:13.506Z,81.10
2019-01-19T12:30:45.425Z,80.90
2019-01-19T12:33:18.860Z,81.00
2019-01-19T12:35:53.018Z,80.80
2019-01-19T12:38:27.046Z,80.80
2019-01-19T12:40:57.648Z,80.70
2019-01-19T12:43:28.946Z,80.50
2019-01-19T12:46:03.183Z,83.00
2019-01-19T12:48:34.762Z,80.20
2019-01-19T12:51:08.505Z,83.20
2019-01-19T12:53:39.858Z,80.20
2019-01-19T12:56:11.350Z,80.00
2019-01-19T12:58:42.770Z,80.00
2019-01-19T13:01:15.206Z,80.00
2019-01-19T13:03:46.601Z,80.00
2019-01-19T13:06:43.586Z,80.00
2019-01-19T13:09:37.239Z,80.00
2019-01-19T13:12:52.655Z,80.00
2019-01-19T13:16:02.438Z,80.00
2019-01-19T13:18:56.803Z,80.90
2019-01-19T13:22:14.861Z,79.80
2019-01-19T13:25:26.640Z,79.70
2019-01-19T13:28:39.541Z,79.90
2019-01-19T13:31:48.313Z,80.00
2019-01-19T13:35:27.615Z,80.00
2019-01-19T13:38:41.936Z,80.00
2019-01-19T13:41:47.594Z,80.00
2019-01-19T13:45:05.258Z,80.20
2019-01-19T13:48:32.017Z,81.10
2019-01-19T13:51:10.577Z,80.60
2019-01-19T13:54:20.626Z,80.70
2019-01-19T13:57:34.727Z,80.70
2019-01-19T14:00:59.465Z,80.70
2019-01-19T14:04:15.667Z,80.90
2019-01-19T14:07:33.505Z,81.00
2019-01-19T14:10:26.030Z,81.20
2019-01-19T14:13:33.687Z,81.20
2019-01-19T14:16:23.530Z,81.30
2019-01-19T14:19:22.972Z,81.40
2019-01-19T14:22:35.354Z,81.60
2019-01-19T14:25:24.612Z,81.60
2019-01-19T14:28:36.717Z,81.50
2019-01-19T14:31:40.165Z,81.60
2019-01-19T14:34:50.621Z,81.60
2019-01-19T14:38:15.562Z,81.90
2019-01-19T14:41:09.025Z,82.00
2019-01-19T14:44:34.999Z,82.30
2019-01-19T14:47:24.941Z,82.60
2019-01-19T14:50:23.639Z,82.60
2019-01-19T14:53:23.203Z,82.80
2019-01-19T14:56:29.522Z,83.00
2019-01-19T14:59:37.695Z,83.20
2019-01-19T15:02:59.066Z,83.20
2019-01-19T15:06:05.943Z,83.30
2019-01-19T15:09:12.776Z,83.50
2019-01-19T15:12:29.797Z,83.40
2019-01-19T15:15:43.358Z,83.40
2019-01-19T15:18:44.757Z,83.70
2019-01-19T15:21:46.525Z,83.90
2019-01-19T15:24:57.313Z,84.00
2019-01-19T15:28:00.946Z,84.00
2019-01-19T15:31:06.853Z,84.10
2019-01-19T15:34:11.607Z,84.20
2019-01-19T15:37:24.904Z,84.40
2019-01-19T15:40:51.028Z,84.60
2019-01-19T15:43:44.335Z,84.70
2019-01-19T15:46:42.050Z,84.70
2019-01-19T15:49:48.302Z,84.70
2019-01-19T15:52:37.610Z,84.70
2019-01-19T15:55:35.330Z,84.80
2019-01-19T15:58:17.548Z,85.00
2019-01-19T16:01:43.689Z,85.10
2019-01-19T16:04:58.554Z,85.10
2019-01-19T16:08:09.329Z,85.10
2019-01-19T16:11:08.133Z,85.30
2019-01-19T16:14:12.372Z,85.20
2019-01-19T16:17:20.684Z,85.30
2019-01-19T16:20:34.938Z,85.20
2019-01-19T16:24:07.864Z,85.20
2019-01-19T16:27:09.441Z,85.30
2019-01-19T16:30:22.893Z,85.00
2019-01-19T16:33:49.526Z,85.00
2019-01-19T16:37:00.063Z,85.00
2019-01-19T16:40:02.566Z,85.20
2019-01-19T16:43:14.854Z,85.30
2019-01-19T16:46:44.913Z,85.40
2019-01-19T16:49:52.312Z,85.50
2019-01-19T16:52:56.982Z,85.50
2019-01-19T16:55:45.468Z,85.50
2019-01-19T16:59:00.968Z,85.50
2019-01-19T17:04:57.807Z,85.60
2019-01-19T17:08:20.550Z,85.60
2019-01-19T17:11:40.155Z,85.70
2019-01-19T17:14:58.766Z,85.80
2019-01-19T17:18:07.318Z,85.80
2019-01-19T17:21:29.736Z,85.90
2019-01-19T17:24:48.849Z,85.90
2019-01-19T17:27:54.668Z,85.90
2019-01-19T17:31:10.221Z,85.90
2019-01-19T17:34:18.587Z,85.90
2019-01-19T17:37:31.654Z,85.90
2019-01-19T17:40:33.040Z,85.90
2019-01-19T17:43:44.892Z,85.90
2019-01-19T17:47:14.875Z,85.90
2019-01-19T17:50:39.921Z,85.80
2019-01-19T17:54:17.416Z,85.90
2019-01-19T17:57:33.578Z,85.90
2019-01-19T18:00:53.672Z,85.90
2019-01-19T18:03:57.293Z,85.90
2019-01-19T18:07:09.129Z,85.80
2019-01-19T18:10:11.646Z,85.80
2019-01-19T18:13:17.129Z,85.80
2019-01-19T18:16:43.477Z,85.70
2019-01-19T18:20:04.087Z,85.70
2019-01-19T18:23:15.812Z,85.60
2019-01-19T18:26:16.133Z,85.60
2019-01-19T18:29:24.177Z,85.60
2019-01-19T18:32:21.357Z,85.70
2019-01-19T18:35:41.649Z,85.80
2019-01-19T18:39:02.954Z,85.80
2019-01-19T18:42:02.783Z,85.70
2019-01-19T18:45:18.612Z,85.70
2019-01-19T18:48:03.530Z,85.80
2019-01-19T18:51:30.941Z,85.90
2019-01-19T18:54:53.934Z,85.70
2019-01-19T18:58:02.431Z,85.70
2019-01-19T19:01:28.240Z,85.70
2019-01-19T19:04:48.433Z,85.70
2019-01-19T19:07:47.484Z,85.70
2019-01-19T19:10:58.323Z,85.70
2019-01-19T19:14:20.342Z,85.90
2019-01-19T19:17:16.484Z,86.00
2019-01-19T21:08:43.049Z,86.50
2019-01-19T21:11:14.718Z,86.40
2019-01-19T21:13:46.082Z,86.50
2019-01-19T21:16:17.608Z,89.10
2019-01-19T21:18:50.585Z,86.20
2019-01-19T21:21:23.616Z,86.20
2019-01-19T21:23:55.121Z,88.80
2019-01-19T21:26:28.286Z,86.10
2019-01-19T21:29:00.028Z,86.10
2019-01-19T21:31:32.811Z,86.10
2019-01-19T21:34:04.031Z,86.10
2019-01-19T21:36:35.627Z,86.10
2019-01-19T21:39:08.752Z,86.10
2019-01-19T21:41:40.867Z,86.00
2019-01-19T21:44:12.250Z,87.20
2019-01-19T21:46:43.720Z,86.30
2019-01-19T21:49:16.235Z,86.40
2019-01-19T21:57:48.010Z,86.70
2019-01-19T22:00:19.918Z,86.70
2019-01-19T22:02:52.840Z,86.90
2019-01-19T22:05:24.204Z,86.90
2019-01-19T22:07:57.078Z,87.00
2019-01-19T22:10:28.967Z,87.20
2019-01-19T22:13:22.758Z,87.10
2019-01-19T22:16:05.404Z,87.10
2019-01-19T22:18:38.693Z,87.10
2019-01-19T22:21:13.644Z,87.10
2019-01-19T22:23:46.038Z,87.70
2019-01-19T22:26:19.717Z,87.00
2019-01-19T22:28:51.330Z,86.90
2019-01-19T22:31:23.403Z,86.90
2019-01-19T22:33:54.831Z,86.90
2019-01-19T22:36:26.361Z,86.90
2019-01-19T22:38:59.872Z,86.90
2019-01-19T22:41:32.921Z,86.90
2019-01-19T22:44:04.545Z,87.00
2019-01-19T22:46:36.103Z,86.90
2019-01-19T22:49:09.056Z,86.90
2019-01-19T22:51:41.337Z,86.90
2019-01-19T22:54:12.715Z,86.80
